createdAt,value
2023-01-15T00:01:26.162Z,4.60
2023-01-15T00:03:38.751Z,4.40
2023-01-15T00:05:51.401Z,2.90
2023-01-15T00:08:04.244Z,3.30
2023-01-15T00:10:16.995Z,3.40
2023-01-15T00:12:29.564Z,3.30
2023-01-15T00:14:42.152Z,4.40
2023-01-15T00:16:54.780Z,2.80
2023-01-15T00:19:10.870Z,3.50
2023-01-15T00:21:24.918Z,4.00
2023-01-15T00:23:56.256Z,2.90
2023-01-15T00:26:32.361Z,4.50
2023-01-15T00:28:48.397Z,4.00
2023-01-15T00:31:00.981Z,3.40
2023-01-15T00:33:13.579Z,3.10
2023-01-15T00:35:26.166Z,3.60
2023-01-15T00:37:38.766Z,2.90
2023-01-15T00:39:51.391Z,2.90
2023-01-15T00:42:04.122Z,2.50
2023-01-15T00:44:17.145Z,3.00
2023-01-15T00:46:29.826Z,3.40
2023-01-15T00:48:42.474Z,2.70
2023-01-15T00:50:55.031Z,4.30
2023-01-15T00:53:07.580Z,3.70
2023-01-15T00:55:20.143Z,3.50
2023-01-15T00:57:33.006Z,3.30
2023-01-15T00:59:45.604Z,3.20
2023-01-15T01:01:58.479Z,3.70
2023-01-15T01:04:11.162Z,4.10
2023-01-15T01:06:23.812Z,4.10
2023-01-15T01:08:36.370Z,4.50
2023-01-15T01:10:48.968Z,4.60
2023-01-15T01:13:01.593Z,4.00
2023-01-15T01:15:14.122Z,3.40
2023-01-15T01:17:26.811Z,4.60
2023-01-15T01:19:39.311Z,3.40
2023-01-15T01:21:52.381Z,2.80
2023-01-15T01:24:06.723Z,2.80
2023-01-15T01:26:19.372Z,2.80
2023-01-15T01:28:31.942Z,3.40
2023-01-15T01:30:44.489Z,4.20
2023-01-15T01:32:57.132Z,2.90
2023-01-15T01:35:10.167Z,3.50
2023-01-15T01:37:22.723Z,3.50
2023-01-15T01:39:35.286Z,3.20
2023-01-15T01:41:48.109Z,3.60
2023-01-15T01:44:03.445Z,2.90
2023-01-15T01:46:16.007Z,3.70
2023-01-15T01:48:34.332Z,3.60
2023-01-15T01:50:49.552Z,2.80
2023-01-15T01:53:11.272Z,3.60
2023-01-15T01:55:26.601Z,3.20
2023-01-15T01:57:40.340Z,3.70
2023-01-15T01:59:53.462Z,2.70
2023-01-15T02:02:06.639Z,4.20
2023-01-15T02:04:22.722Z,3.00
2023-01-15T02:06:36.032Z,2.90
2023-01-15T02:08:48.673Z,2.70
2023-01-15T02:11:01.673Z,3.80
2023-01-15T02:13:20.646Z,3.40
2023-01-15T02:15:38.603Z,3.20
2023-01-15T02:18:15.934Z,2.80
2023-01-15T02:20:40.377Z,3.30
2023-01-15T02:23:17.439Z,3.80
2023-01-15T02:25:46.383Z,3.60
2023-01-15T02:28:08.122Z,2.90
2023-01-15T02:30:28.654Z,2.70
2023-01-15T02:32:46.360Z,2.90
2023-01-15T02:35:07.242Z,3.20
2023-01-15T02:37:25.825Z,3.20
2023-01-15T02:39:42.461Z,2.10
2023-01-15T02:41:59.178Z,2.80
2023-01-15T02:44:14.119Z,2.30
2023-01-15T02:46:30.795Z,2.10
2023-01-15T02:48:50.073Z,2.80
2023-01-15T02:51:16.769Z,2.30
2023-01-15T02:53:31.246Z,2.70
2023-01-15T02:55:49.092Z,1.90
2023-01-15T02:58:07.429Z,2.60
2023-01-15T03:00:22.759Z,2.70
2023-01-15T03:02:42.638Z,2.30
2023-01-15T03:05:02.746Z,2.80
2023-01-15T03:07:36.069Z,3.80
2023-01-15T03:09:49.560Z,2.30
2023-01-15T03:12:05.371Z,2.40
2023-01-15T03:14:30.744Z,2.70
2023-01-15T03:16:55.320Z,2.30
2023-01-15T03:19:22.648Z,2.50
2023-01-15T03:21:46.633Z,2.40
2023-01-15T03:24:02.113Z,2.70
2023-01-15T03:26:14.737Z,2.20
2023-01-15T03:28:32.274Z,2.10
2023-01-15T03:30:44.958Z,2.60
2023-01-15T03:32:58.053Z,3.10
2023-01-15T03:35:47.071Z,2.70
2023-01-15T03:37:59.629Z,2.20
2023-01-15T03:40:12.350Z,1.90
2023-01-15T03:42:49.783Z,2.20
2023-01-15T03:45:07.165Z,1.70
2023-01-15T03:47:29.994Z,2.40
2023-01-15T03:50:04.468Z,1.70
2023-01-15T03:52:22.579Z,1.30
2023-01-15T03:54:49.718Z,2.00
2023-01-15T03:57:31.887Z,2.10
2023-01-15T03:59:54.099Z,2.00
2023-01-15T04:02:09.524Z,3.30
2023-01-15T04:04:25.179Z,1.60
2023-01-15T04:06:41.950Z,2.00
2023-01-15T04:08:55.490Z,1.40
2023-01-15T04:11:08.032Z,1.90
2023-01-15T04:13:21.105Z,1.80
2023-01-15T04:15:33.753Z,1.70
2023-01-15T04:17:46.320Z,1.30
2023-01-15T04:19:58.925Z,1.70
2023-01-15T04:22:11.789Z,1.10
2023-01-15T04:24:24.456Z,1.70
2023-01-15T04:26:37.032Z,2.10
2023-01-15T04:28:49.850Z,1.30
2023-01-15T04:31:02.461Z,1.50
2023-01-15T04:33:15.136Z,1.40
2023-01-15T04:35:27.672Z,1.40
2023-01-15T04:37:40.143Z,1.60
2023-01-15T04:39:52.720Z,1.20
2023-01-15T04:42:24.088Z,1.60
2023-01-15T04:44:37.572Z,1.50
2023-01-15T04:46:50.246Z,2.70
2023-01-15T04:49:03.822Z,2.10
2023-01-15T04:51:16.634Z,2.10
2023-01-15T04:53:29.188Z,2.30
2023-01-15T04:55:41.851Z,1.80
2023-01-15T04:57:54.487Z,1.90
2023-01-15T05:00:09.557Z,1.60
2023-01-15T05:02:22.178Z,2.60
2023-01-15T05:04:35.853Z,1.60
2023-01-15T05:06:48.489Z,1.90
2023-01-15T05:09:01.588Z,1.70
2023-01-15T05:11:14.225Z,1.90
2023-01-15T05:13:26.811Z,2.00
2023-01-15T05:15:40.887Z,1.50
2023-01-15T05:17:53.589Z,2.10
2023-01-15T05:20:06.813Z,1.40
2023-01-15T05:22:19.401Z,1.20
2023-01-15T05:24:32.020Z,1.40
2023-01-15T05:26:45.253Z,1.60
2023-01-15T05:28:59.645Z,2.20
2023-01-15T05:31:14.880Z,1.60
2023-01-15T05:33:27.476Z,2.70
2023-01-15T05:35:40.035Z,1.80
2023-01-15T05:37:52.579Z,1.60
2023-01-15T05:40:05.729Z,2.10
2023-01-15T05:42:18.270Z,1.60
2023-01-15T05:44:30.863Z,1.50
2023-01-15T05:46:44.845Z,1.50
2023-01-15T05:49:07.060Z,1.90
2023-01-15T05:51:20.410Z,2.40
2023-01-15T05:53:34.868Z,2.80
2023-01-15T05:55:47.385Z,2.30
2023-01-15T05:57:59.995Z,2.20
2023-01-15T06:00:13.227Z,3.60
2023-01-15T06:02:25.811Z,3.20
2023-01-15T06:04:38.435Z,2.00
2023-01-15T06:06:52.682Z,3.30
2023-01-15T06:09:05.204Z,3.10
2023-01-15T06:11:17.775Z,4.50
2023-01-15T06:13:30.287Z,3.30
2023-01-15T06:15:43.402Z,4.10
2023-01-15T06:17:55.949Z,3.00
2023-01-15T06:20:09.384Z,3.70
2023-01-15T06:22:21.939Z,4.80
2023-01-15T06:24:34.580Z,3.40
2023-01-15T06:26:47.185Z,3.50
2023-01-15T06:28:59.773Z,2.30
2023-01-15T06:31:15.546Z,2.50
2023-01-15T06:33:28.127Z,2.20
2023-01-15T06:35:40.695Z,2.80
2023-01-15T06:37:53.415Z,1.70
2023-01-15T06:40:06.647Z,1.60
2023-01-15T06:42:37.897Z,0.90
2023-01-15T06:45:25.943Z,1.10
2023-01-15T06:47:38.425Z,1.20
2023-01-15T06:49:56.238Z,1.50
2023-01-15T06:52:08.805Z,1.20
2023-01-15T07:09:50.127Z,1.70
2023-01-15T07:12:03.100Z,1.00
2023-01-15T07:14:17.587Z,1.40
2023-01-15T07:16:30.184Z,0.80
2023-01-15T07:18:42.735Z,0.90
2023-01-15T07:20:57.025Z,0.80
2023-01-15T07:23:09.515Z,1.00
2023-01-15T07:25:22.107Z,1.10
2023-01-15T07:27:34.629Z,1.30
2023-01-15T07:29:48.130Z,1.00
2023-01-15T07:32:00.776Z,1.20
2023-01-15T07:34:13.408Z,0.90
2023-01-15T07:36:26.196Z,1.20
2023-01-15T07:38:38.787Z,1.80
2023-01-15T07:41:11.290Z,0.70
2023-01-15T07:43:42.393Z,2.00
2023-01-15T07:46:14.007Z,1.70
2023-01-15T07:48:45.296Z,2.70
2023-01-15T07:50:57.758Z,3.00
2023-01-15T07:53:10.267Z,1.90
2023-01-15T07:55:23.837Z,2.60
2023-01-15T07:57:36.845Z,2.00
2023-01-15T07:59:50.483Z,1.80
2023-01-15T08:02:03.478Z,3.20
2023-01-15T08:04:16.053Z,2.50
2023-01-15T08:06:28.592Z,2.60
2023-01-15T08:08:41.263Z,2.20
2023-01-15T08:11:12.260Z,2.40
2023-01-15T08:13:43.421Z,2.40
2023-01-15T08:15:56.430Z,2.60
2023-01-15T08:18:09.204Z,2.30
2023-01-15T08:20:24.659Z,2.00
2023-01-15T08:22:38.551Z,3.10
2023-01-15T08:24:51.140Z,2.90
2023-01-15T08:27:04.292Z,3.70
2023-01-15T08:29:16.908Z,3.20
2023-01-15T08:31:29.538Z,3.30
2023-01-15T08:33:42.147Z,3.00
2023-01-15T08:35:54.688Z,3.60
2023-01-15T08:38:08.265Z,2.70
2023-01-15T08:40:20.773Z,2.90
2023-01-15T08:42:33.698Z,2.70
2023-01-15T08:44:46.541Z,3.60
2023-01-15T08:47:00.368Z,2.20
2023-01-15T08:49:13.243Z,2.90
2023-01-15T08:51:25.788Z,2.20
2023-01-15T08:53:38.897Z,3.00
2023-01-15T08:55:51.591Z,2.80
2023-01-15T08:58:04.158Z,2.60
2023-01-15T09:00:17.742Z,2.60
2023-01-15T09:02:30.492Z,5.70
2023-01-15T09:04:43.261Z,3.60
2023-01-15T09:06:55.912Z,4.20
2023-01-15T09:09:09.016Z,3.90
2023-01-15T09:11:21.747Z,3.00
2023-01-15T09:13:34.314Z,3.60
2023-01-15T09:15:46.947Z,3.30
2023-01-15T09:18:00.442Z,4.30
2023-01-15T09:20:14.257Z,2.90
2023-01-15T09:22:29.938Z,3.40
2023-01-15T09:24:42.600Z,3.80
2023-01-15T09:26:55.548Z,4.10
2023-01-15T09:29:09.080Z,3.60
2023-01-15T09:31:22.908Z,4.10
2023-01-15T09:33:35.527Z,3.80
2023-01-15T09:35:48.278Z,4.10
2023-01-15T09:38:00.803Z,3.90
2023-01-15T09:40:29.619Z,3.50
2023-01-15T09:42:57.568Z,3.80
2023-01-15T09:45:37.661Z,3.40
2023-01-15T09:48:18.241Z,3.10
2023-01-15T09:50:54.152Z,3.40
2023-01-15T09:53:28.582Z,3.90
2023-01-15T09:55:50.488Z,2.80
2023-01-15T09:58:06.311Z,4.80
2023-01-15T10:00:23.991Z,3.40
2023-01-15T10:03:01.936Z,3.30
2023-01-15T10:05:30.630Z,2.90
2023-01-15T10:07:49.704Z,3.30
2023-01-15T10:10:11.317Z,3.20
2023-01-15T10:12:35.970Z,4.00
2023-01-15T10:15:15.034Z,5.10
2023-01-15T10:17:34.914Z,4.30
2023-01-15T10:19:47.600Z,5.00
2023-01-15T10:22:12.928Z,3.60
2023-01-15T10:24:45.538Z,5.50
2023-01-15T10:26:59.294Z,3.80
2023-01-15T10:29:34.053Z,3.70
2023-01-15T10:31:54.841Z,3.20
2023-01-15T10:34:38.743Z,3.20
2023-01-15T10:37:17.273Z,4.10
2023-01-15T10:39:52.915Z,3.50
2023-01-15T10:42:28.800Z,3.20
2023-01-15T10:45:22.707Z,3.10
2023-01-15T10:47:38.053Z,3.40
2023-01-15T10:49:51.085Z,3.70
2023-01-15T10:52:08.499Z,3.10
2023-01-15T10:54:36.591Z,3.80
2023-01-15T10:57:04.986Z,5.40
2023-01-15T10:59:30.333Z,3.70
2023-01-15T11:01:43.142Z,3.00
2023-01-15T11:03:55.807Z,3.60
2023-01-15T11:06:15.881Z,3.70
2023-01-15T11:09:07.286Z,4.70
2023-01-15T11:11:21.286Z,4.90
2023-01-15T11:13:52.473Z,5.00
2023-01-15T11:16:24.627Z,4.80
2023-01-15T11:19:00.590Z,3.40
2023-01-15T11:21:19.285Z,3.60
2023-01-15T11:23:36.275Z,3.30
2023-01-15T11:26:00.324Z,3.60
2023-01-15T11:28:15.413Z,4.30
2023-01-15T11:30:34.294Z,5.30
2023-01-15T11:32:55.480Z,3.20
2023-01-15T11:35:08.299Z,3.90
2023-01-15T11:37:20.843Z,4.80
2023-01-15T11:39:33.639Z,4.20
2023-01-15T11:42:06.791Z,4.00
2023-01-15T11:44:41.033Z,3.50
2023-01-15T11:47:13.596Z,3.50
2023-01-15T11:49:44.943Z,4.30
2023-01-15T11:51:58.738Z,3.60
2023-01-15T11:54:15.019Z,3.00
2023-01-15T11:56:29.838Z,3.90
2023-01-15T11:58:48.839Z,3.40
2023-01-15T12:01:02.009Z,4.80
2023-01-15T12:03:21.753Z,3.80
2023-01-15T12:05:36.374Z,6.40
2023-01-15T12:07:53.191Z,4.90
2023-01-15T12:10:10.912Z,4.90
2023-01-15T12:12:50.876Z,4.50
2023-01-15T12:15:30.568Z,5.30
2023-01-15T12:18:03.556Z,2.40
2023-01-15T12:20:29.723Z,3.60
2023-01-15T12:23:31.318Z,2.80
2023-01-15T12:25:58.535Z,2.70
2023-01-15T12:28:19.696Z,1.50
2023-01-15T12:30:56.714Z,1.10
2023-01-15T12:33:20.674Z,1.70
2023-01-15T12:35:41.061Z,1.30
2023-01-15T12:37:58.691Z,3.30
2023-01-15T12:40:26.553Z,3.00
2023-01-15T12:42:59.549Z,2.50
2023-01-15T12:45:16.938Z,1.40
2023-01-15T12:47:57.885Z,2.40
2023-01-15T12:50:47.281Z,1.50
2023-01-15T12:53:16.948Z,1.50
2023-01-15T12:55:34.443Z,1.90
2023-01-15T12:57:51.664Z,1.20
2023-01-15T13:00:13.831Z,1.40
2023-01-15T13:02:47.836Z,6.00
2023-01-15T13:05:22.197Z,5.80
2023-01-15T13:07:39.896Z,7.80
2023-01-15T13:10:07.715Z,13.90
2023-01-15T13:12:20.448Z,15.40
2023-01-15T13:14:33.129Z,6.30
2023-01-15T13:17:24.194Z,3.50
2023-01-15T13:19:59.415Z,1.60
2023-01-15T13:22:20.156Z,4.30
2023-01-15T13:25:00.052Z,4.40
2023-01-15T13:27:40.316Z,2.30
2023-01-15T13:30:14.573Z,1.90
2023-01-15T13:32:31.294Z,3.60
2023-01-15T13:35:09.040Z,3.10
2023-01-15T13:37:43.553Z,4.40
2023-01-15T13:40:15.734Z,4.20
2023-01-15T13:42:32.032Z,4.60
2023-01-15T13:44:51.951Z,2.80
2023-01-15T13:47:11.737Z,3.30
2023-01-15T13:49:33.065Z,2.30
2023-01-15T13:51:49.619Z,3.50
2023-01-15T13:54:02.166Z,3.10
2023-01-15T13:56:27.692Z,2.80
2023-01-15T13:58:53.216Z,2.80
2023-01-15T14:01:18.107Z,2.60
2023-01-15T14:03:33.555Z,2.20
2023-01-15T14:05:55.338Z,13.80
2023-01-15T14:08:16.704Z,58.60
2023-01-15T14:10:32.218Z,59.80
2023-01-15T14:13:16.669Z,17.40
2023-01-15T14:15:47.581Z,5.60
2023-01-15T14:18:10.560Z,2.10
2023-01-15T14:20:34.084Z,2.30
2023-01-15T14:23:08.334Z,1.80
2023-01-15T14:25:33.438Z,2.70
2023-01-15T14:28:11.670Z,1.90
2023-01-15T14:31:08.387Z,2.50
2023-01-15T14:33:49.733Z,10.40
2023-01-15T14:36:18.476Z,8.60
2023-01-15T14:38:33.289Z,9.50
2023-01-15T14:40:59.673Z,9.20
2023-01-15T14:43:20.123Z,18.70
2023-01-15T14:45:42.465Z,9.90
2023-01-15T14:47:57.570Z,11.70
2023-01-15T14:50:40.955Z,10.60
2023-01-15T14:52:58.685Z,9.40
2023-01-15T14:55:12.652Z,11.50
2023-01-15T14:57:25.829Z,14.10
2023-01-15T14:59:49.694Z,18.00
2023-01-15T15:02:12.954Z,13.30
2023-01-15T15:04:48.807Z,10.60
2023-01-15T15:07:14.386Z,6.20
2023-01-15T15:09:32.745Z,10.90
2023-01-15T15:12:06.582Z,8.90
2023-01-15T15:14:21.311Z,12.70
2023-01-15T15:16:40.856Z,11.40
2023-01-15T15:19:05.737Z,9.00
2023-01-15T15:21:23.602Z,9.70
2023-01-15T15:23:59.505Z,12.70
2023-01-15T15:26:28.813Z,8.50
2023-01-15T15:28:41.374Z,6.80
2023-01-15T15:30:55.188Z,7.30
2023-01-15T15:33:22.156Z,6.20
2023-01-15T15:35:35.079Z,5.30
2023-01-15T15:37:47.644Z,9.30
2023-01-15T15:40:16.411Z,12.20
2023-01-15T15:42:55.912Z,13.60
2023-01-15T15:45:41.360Z,12.20
2023-01-15T15:48:16.344Z,8.80
2023-01-15T15:50:31.970Z,8.90
2023-01-15T15:52:44.837Z,6.30
2023-01-15T15:54:59.390Z,7.30
2023-01-15T15:57:19.789Z,7.90
2023-01-15T15:59:35.679Z,11.00
2023-01-15T16:01:48.492Z,11.80
2023-01-15T16:04:01.712Z,14.90
2023-01-15T16:06:20.923Z,19.90
2023-01-15T16:08:35.902Z,21.10
2023-01-15T16:10:52.483Z,14.70
2023-01-15T16:13:10.204Z,14.40
2023-01-15T16:15:28.416Z,12.00
2023-01-15T16:17:42.504Z,8.40
2023-01-15T16:19:56.607Z,8.00
2023-01-15T16:22:15.288Z,7.80
2023-01-15T16:24:29.329Z,7.70
2023-01-15T16:26:52.379Z,6.50
2023-01-15T16:29:07.320Z,8.50
2023-01-15T16:31:45.755Z,9.70
2023-01-15T16:33:59.284Z,12.10
2023-01-15T16:36:11.972Z,12.20
2023-01-15T16:38:25.997Z,12.80
2023-01-15T16:40:39.791Z,14.20
2023-01-15T16:43:13.265Z,11.40
2023-01-15T16:45:27.385Z,11.50
2023-01-15T16:47:40.118Z,11.20
2023-01-15T16:49:53.458Z,11.70
2023-01-15T16:52:41.690Z,12.00
2023-01-15T16:54:56.636Z,8.90
2023-01-15T16:57:32.202Z,7.30
2023-01-15T16:59:44.690Z,11.60
2023-01-15T17:02:05.295Z,10.50
2023-01-15T17:04:22.208Z,10.70
2023-01-15T17:06:34.804Z,11.20
2023-01-15T17:08:49.116Z,10.00
2023-01-15T17:11:03.729Z,9.90
2023-01-15T17:13:19.857Z,11.40
2023-01-15T17:15:40.499Z,12.40
2023-01-15T17:17:55.222Z,13.30
2023-01-15T17:20:12.882Z,14.90
2023-01-15T17:22:31.227Z,16.30
2023-01-15T17:24:52.108Z,15.20
2023-01-15T17:27:04.790Z,14.90
2023-01-15T17:29:17.611Z,13.60
2023-01-15T17:31:33.407Z,12.60
2023-01-15T17:33:46.088Z,15.10
2023-01-15T17:36:01.070Z,19.80
2023-01-15T17:38:15.567Z,21.10
2023-01-15T17:40:28.934Z,18.50
2023-01-15T17:42:41.630Z,19.60
2023-01-15T17:44:54.215Z,15.80
2023-01-15T17:47:06.779Z,12.80
2023-01-15T17:49:19.285Z,12.10
2023-01-15T17:51:31.870Z,10.30
2023-01-15T17:53:44.473Z,12.40
2023-01-15T17:56:15.523Z,13.20
2023-01-15T17:58:46.960Z,11.80
2023-01-15T18:01:20.098Z,11.60
2023-01-15T18:03:51.621Z,14.80
2023-01-15T18:06:05.034Z,13.30
2023-01-15T18:08:18.798Z,13.60
2023-01-15T18:10:32.917Z,10.80
2023-01-15T18:12:45.495Z,12.10
2023-01-15T18:14:58.264Z,11.00
2023-01-15T18:17:11.608Z,12.20
2023-01-15T18:19:24.425Z,13.70
2023-01-15T18:21:39.262Z,11.10
2023-01-15T18:23:51.833Z,11.90
2023-01-15T18:26:08.083Z,15.10
2023-01-15T18:28:21.300Z,16.50
2023-01-15T18:30:34.006Z,18.10
2023-01-15T18:32:46.632Z,19.60
2023-01-15T18:34:59.209Z,20.30
2023-01-15T18:37:24.299Z,20.10
2023-01-15T18:39:37.370Z,21.40
2023-01-15T18:41:50.000Z,18.50
2023-01-15T18:44:22.509Z,18.60
2023-01-15T18:46:43.994Z,20.30
2023-01-15T18:48:56.874Z,20.20
2023-01-15T18:51:09.941Z,22.10
2023-01-15T18:53:22.925Z,20.80
2023-01-15T18:55:35.723Z,21.30
2023-01-15T18:57:48.427Z,34.90
2023-01-15T19:00:01.096Z,40.40
2023-01-15T19:02:15.540Z,83.20
2023-01-15T19:04:28.294Z,77.30
2023-01-15T19:06:40.980Z,53.20
2023-01-15T19:08:53.726Z,73.80
2023-01-15T19:11:13.386Z,35.40
2023-01-15T19:13:25.973Z,23.60
2023-01-15T19:16:00.368Z,24.90
2023-01-15T19:18:31.769Z,34.90
2023-01-15T19:20:44.636Z,23.20
2023-01-15T19:23:01.400Z,21.80
2023-01-15T19:25:15.442Z,25.50
2023-01-15T19:27:28.263Z,42.20
2023-01-15T19:29:40.826Z,32.10
2023-01-15T19:31:53.377Z,29.30
2023-01-15T19:34:32.263Z,26.90
2023-01-15T19:36:41.535Z,36.30
2023-01-15T19:38:54.126Z,27.40
2023-01-15T19:41:30.850Z,25.60
2023-01-15T19:44:02.491Z,28.70
2023-01-15T19:46:33.654Z,22.80
2023-01-15T19:49:06.150Z,21.10
2023-01-15T19:51:20.132Z,17.80
2023-01-15T19:53:34.752Z,15.90
2023-01-15T19:55:47.705Z,13.20
2023-01-15T19:58:05.935Z,10.10
2023-01-15T20:00:19.708Z,9.90
2023-01-15T20:02:34.029Z,8.50
2023-01-15T20:04:48.548Z,8.50
2023-01-15T20:07:01.093Z,6.00
2023-01-15T20:09:15.085Z,5.60
2023-01-15T20:11:47.792Z,4.50
2023-01-15T20:14:05.012Z,8.40
2023-01-15T20:16:21.594Z,14.00
2023-01-15T20:18:34.518Z,9.90
2023-01-15T20:20:47.325Z,8.50
2023-01-15T20:23:00.878Z,7.40
2023-01-15T20:25:13.505Z,8.60
2023-01-15T20:27:26.152Z,8.00
2023-01-15T20:29:42.898Z,7.70
2023-01-15T20:31:55.710Z,7.00
2023-01-15T20:34:08.560Z,5.70
2023-01-15T20:36:21.114Z,5.70
2023-01-15T20:38:33.918Z,4.80
2023-01-15T20:40:47.572Z,5.50
2023-01-15T20:43:18.897Z,4.90
2023-01-15T20:45:31.670Z,9.40
2023-01-15T20:48:04.686Z,8.40
2023-01-15T20:50:17.697Z,6.40
2023-01-15T20:52:30.440Z,4.90
2023-01-15T20:54:42.959Z,4.80
2023-01-15T20:56:55.555Z,3.90
2023-01-15T20:59:08.123Z,4.50
2023-01-15T21:01:21.143Z,4.80
2023-01-15T21:03:35.424Z,4.50
2023-01-15T21:05:48.137Z,4.70
2023-01-15T21:08:00.745Z,6.70
2023-01-15T21:10:13.847Z,7.40
2023-01-15T21:12:26.479Z,6.80
2023-01-15T21:14:39.000Z,6.30
2023-01-15T21:16:51.766Z,10.00
2023-01-15T21:19:04.863Z,14.50
2023-01-15T21:21:19.656Z,13.00
2023-01-15T21:23:32.291Z,24.20
2023-01-15T21:25:45.106Z,15.00
2023-01-15T21:27:57.856Z,24.40
2023-01-15T21:30:11.010Z,9.10
2023-01-15T21:32:24.003Z,9.20
2023-01-15T21:34:36.502Z,11.20
2023-01-15T21:36:49.196Z,13.30
2023-01-15T21:39:02.701Z,18.20
2023-01-15T21:41:15.640Z,17.90
2023-01-15T21:43:47.007Z,30.40
2023-01-15T21:46:06.070Z,12.50
2023-01-15T21:48:19.119Z,12.10
2023-01-15T21:50:31.633Z,10.60
2023-01-15T21:52:44.480Z,13.90
2023-01-15T21:54:57.666Z,15.30
2023-01-15T21:57:11.438Z,14.40
2023-01-15T21:59:24.767Z,9.20
2023-01-15T22:01:37.499Z,10.30
2023-01-15T22:03:50.117Z,8.90
2023-01-15T22:06:05.079Z,7.20
2023-01-15T22:08:17.709Z,8.00
2023-01-15T22:10:31.524Z,9.30
2023-01-15T22:12:44.242Z,11.40
2023-01-15T22:14:57.547Z,8.10
2023-01-15T22:17:11.048Z,5.00
2023-01-15T22:19:25.629Z,6.20
2023-01-15T22:21:38.389Z,5.90
2023-01-15T22:23:50.962Z,5.40
2023-01-15T22:26:03.635Z,6.30
2023-01-15T22:28:16.239Z,8.30
2023-01-15T22:30:28.874Z,7.20
2023-01-15T22:32:41.582Z,4.90
2023-01-15T22:34:54.263Z,5.80
2023-01-15T22:37:06.856Z,5.80
2023-01-15T22:39:20.851Z,5.30
2023-01-15T22:41:51.949Z,5.40
2023-01-15T22:44:05.593Z,4.50
2023-01-15T22:46:18.234Z,4.10
2023-01-15T22:48:30.771Z,4.20
2023-01-15T22:50:43.360Z,5.10
2023-01-15T22:52:56.456Z,4.30
2023-01-15T22:55:09.743Z,3.80
2023-01-15T22:57:23.425Z,3.50
2023-01-15T22:59:36.008Z,2.90
2023-01-15T23:01:48.787Z,3.60
2023-01-15T23:04:01.485Z,2.70
2023-01-15T23:06:14.900Z,5.00
2023-01-15T23:08:32.051Z,3.20
2023-01-15T23:10:46.258Z,3.70
2023-01-15T23:12:58.867Z,3.40
2023-01-15T23:15:13.371Z,2.90
2023-01-15T23:17:25.996Z,3.40
2023-01-15T23:19:38.528Z,4.10
2023-01-15T23:21:51.060Z,3.20
2023-01-15T23:24:03.861Z,2.60
2023-01-15T23:26:17.669Z,3.00
2023-01-15T23:28:31.144Z,3.20
2023-01-15T23:30:43.826Z,3.10
2023-01-15T23:32:57.527Z,3.10
2023-01-15T23:35:10.089Z,2.50
2023-01-15T23:37:22.709Z,3.00
2023-01-15T23:39:35.229Z,3.80
2023-01-15T23:42:06.457Z,2.10
2023-01-15T23:44:39.138Z,2.80
2023-01-15T23:46:51.720Z,1.90
2023-01-15T23:49:10.303Z,3.50
2023-01-15T23:51:22.866Z,2.80
2023-01-15T23:53:35.433Z,3.60
2023-01-15T23:55:48.034Z,2.10
2023-01-15T23:58:00.519Z,2.70
